sensor_id;sensor_type;location;lat;lon;timestamp;P1;durP1;ratioP1;P2;durP2;ratioP2
15624;SDS011;7912;51.376;6.126;2023-04-25T00:02:24;8.97;;;4.50;;
15624;SDS011;7912;51.376;6.126;2023-04-25T00:04:52;9.00;;;4.70;;
15624;SDS011;7912;51.376;6.126;2023-04-25T00:07:20;8.73;;;5.07;;
15624;SDS011;7912;51.376;6.126;2023-04-25T00:09:47;10.53;;;4.87;;
15624;SDS011;7912;51.376;6.126;2023-04-25T00:12:15;10.90;;;5.30;;
15624;SDS011;7912;51.376;6.126;2023-04-25T00:14:43;8.17;;;5.17;;
15624;SDS011;7912;51.376;6.126;2023-04-25T00:17:11;8.67;;;4.80;;
15624;SDS011;7912;51.376;6.126;2023-04-25T00:19:39;7.90;;;4.83;;
15624;SDS011;7912;51.376;6.126;2023-04-25T00:22:06;8.20;;;4.50;;
15624;SDS011;7912;51.376;6.126;2023-04-25T00:24:34;8.73;;;4.33;;
15624;SDS011;7912;51.376;6.126;2023-04-25T00:27:01;8.60;;;4.40;;
15624;SDS011;7912;51.376;6.126;2023-04-25T00:29:28;6.97;;;4.40;;
15624;SDS011;7912;51.376;6.126;2023-04-25T00:31:55;7.13;;;4.20;;
15624;SDS011;7912;51.376;6.126;2023-04-25T00:34:22;7.07;;;4.70;;
15624;SDS011;7912;51.376;6.126;2023-04-25T00:36:50;6.67;;;4.27;;
15624;SDS011;7912;51.376;6.126;2023-04-25T00:39:17;8.53;;;4.50;;
15624;SDS011;7912;51.376;6.126;2023-04-25T00:41:44;7.20;;;4.27;;
15624;SDS011;7912;51.376;6.126;2023-04-25T00:44:12;8.53;;;4.60;;
15624;SDS011;7912;51.376;6.126;2023-04-25T00:46:41;8.67;;;4.57;;
15624;SDS011;7912;51.376;6.126;2023-04-25T00:49:09;7.90;;;4.50;;
15624;SDS011;7912;51.376;6.126;2023-04-25T00:51:41;9.63;;;4.57;;
15624;SDS011;7912;51.376;6.126;2023-04-25T00:54:11;8.07;;;4.53;;
15624;SDS011;7912;51.376;6.126;2023-04-25T00:56:40;10.00;;;4.83;;
15624;SDS011;7912;51.376;6.126;2023-04-25T00:59:08;7.37;;;4.43;;
15624;SDS011;7912;51.376;6.126;2023-04-25T01:01:36;8.80;;;4.50;;
15624;SDS011;7912;51.376;6.126;2023-04-25T01:04:05;10.97;;;4.97;;
15624;SDS011;7912;51.376;6.126;2023-04-25T01:06:33;6.27;;;4.23;;
15624;SDS011;7912;51.376;6.126;2023-04-25T01:09:00;8.10;;;4.57;;
15624;SDS011;7912;51.376;6.126;2023-04-25T01:11:30;6.97;;;4.40;;
15624;SDS011;7912;51.376;6.126;2023-04-25T01:13:58;7.23;;;3.77;;
15624;SDS011;7912;51.376;6.126;2023-04-25T01:16:25;7.40;;;4.80;;
15624;SDS011;7912;51.376;6.126;2023-04-25T01:18:53;5.97;;;4.37;;
15624;SDS011;7912;51.376;6.126;2023-04-25T01:21:21;7.37;;;4.23;;
15624;SDS011;7912;51.376;6.126;2023-04-25T01:23:48;7.33;;;4.00;;
15624;SDS011;7912;51.376;6.126;2023-04-25T01:26:16;8.97;;;4.33;;
15624;SDS011;7912;51.376;6.126;2023-04-25T01:28:44;8.37;;;4.40;;
15624;SDS011;7912;51.376;6.126;2023-04-25T01:31:12;6.43;;;4.90;;
15624;SDS011;7912;51.376;6.126;2023-04-25T01:33:41;11.40;;;5.73;;
15624;SDS011;7912;51.376;6.126;2023-04-25T01:36:09;10.23;;;5.43;;
15624;SDS011;7912;51.376;6.126;2023-04-25T01:38:36;8.83;;;5.10;;
15624;SDS011;7912;51.376;6.126;2023-04-25T01:41:04;10.63;;;5.67;;
15624;SDS011;7912;51.376;6.126;2023-04-25T01:43:32;10.70;;;5.10;;
15624;SDS011;7912;51.376;6.126;2023-04-25T01:45:59;7.17;;;4.80;;
15624;SDS011;7912;51.376;6.126;2023-04-25T01:48:27;8.70;;;4.90;;
15624;SDS011;7912;51.376;6.126;2023-04-25T01:57:58;8.83;;;4.23;;
15624;SDS011;7912;51.376;6.126;2023-04-25T02:00:26;6.03;;;4.07;;
15624;SDS011;7912;51.376;6.126;2023-04-25T02:02:57;8.87;;;4.60;;
15624;SDS011;7912;51.376;6.126;2023-04-25T02:05:25;6.40;;;4.03;;
15624;SDS011;7912;51.376;6.126;2023-04-25T02:07:52;7.37;;;4.10;;
15624;SDS011;7912;51.376;6.126;2023-04-25T02:10:19;9.27;;;5.00;;
15624;SDS011;7912;51.376;6.126;2023-04-25T02:12:47;7.20;;;4.30;;
15624;SDS011;7912;51.376;6.126;2023-04-25T02:15:14;7.43;;;4.17;;
15624;SDS011;7912;51.376;6.126;2023-04-25T02:17:41;9.53;;;4.17;;
15624;SDS011;7912;51.376;6.126;2023-04-25T02:20:09;9.13;;;4.30;;
15624;SDS011;7912;51.376;6.126;2023-04-25T02:22:37;7.97;;;4.37;;
15624;SDS011;7912;51.376;6.126;2023-04-25T02:25:04;8.40;;;4.23;;
15624;SDS011;7912;51.376;6.126;2023-04-25T02:27:32;7.03;;;4.27;;
15624;SDS011;7912;51.376;6.126;2023-04-25T02:29:59;6.93;;;4.03;;
15624;SDS011;7912;51.376;6.126;2023-04-25T02:32:27;9.13;;;4.13;;
15624;SDS011;7912;51.376;6.126;2023-04-25T02:34:54;6.67;;;4.23;;
15624;SDS011;7912;51.376;6.126;2023-04-25T02:37:21;8.57;;;4.57;;
15624;SDS011;7912;51.376;6.126;2023-04-25T02:39:48;10.37;;;4.40;;
15624;SDS011;7912;51.376;6.126;2023-04-25T02:42:16;8.10;;;4.87;;
15624;SDS011;7912;51.376;6.126;2023-04-25T02:44:43;10.37;;;5.23;;
15624;SDS011;7912;51.376;6.126;2023-04-25T02:47:10;8.03;;;4.80;;
15624;SDS011;7912;51.376;6.126;2023-04-25T02:49:37;7.77;;;4.37;;
15624;SDS011;7912;51.376;6.126;2023-04-25T02:52:05;7.63;;;4.70;;
15624;SDS011;7912;51.376;6.126;2023-04-25T02:54:32;8.60;;;4.50;;
15624;SDS011;7912;51.376;6.126;2023-04-25T02:57:00;10.87;;;5.10;;
15624;SDS011;7912;51.376;6.126;2023-04-25T02:59:29;8.63;;;4.53;;
15624;SDS011;7912;51.376;6.126;2023-04-25T03:01:56;8.40;;;4.87;;
15624;SDS011;7912;51.376;6.126;2023-04-25T03:04:23;9.97;;;5.30;;
15624;SDS011;7912;51.376;6.126;2023-04-25T03:06:51;10.17;;;4.83;;
15624;SDS011;7912;51.376;6.126;2023-04-25T03:09:19;10.10;;;5.27;;
15624;SDS011;7912;51.376;6.126;2023-04-25T03:11:46;8.73;;;4.97;;
15624;SDS011;7912;51.376;6.126;2023-04-25T03:14:14;7.70;;;5.13;;
15624;SDS011;7912;51.376;6.126;2023-04-25T03:16:41;9.20;;;5.07;;
15624;SDS011;7912;51.376;6.126;2023-04-25T03:19:08;6.90;;;5.00;;
15624;SDS011;7912;51.376;6.126;2023-04-25T03:21:36;8.83;;;5.20;;
15624;SDS011;7912;51.376;6.126;2023-04-25T03:24:04;8.43;;;4.97;;
15624;SDS011;7912;51.376;6.126;2023-04-25T03:26:32;7.97;;;4.73;;
15624;SDS011;7912;51.376;6.126;2023-04-25T03:29:01;10.07;;;4.83;;
15624;SDS011;7912;51.376;6.126;2023-04-25T03:31:29;10.80;;;5.27;;
15624;SDS011;7912;51.376;6.126;2023-04-25T03:33:57;10.30;;;5.47;;
15624;SDS011;7912;51.376;6.126;2023-04-25T03:36:24;6.07;;;4.13;;
15624;SDS011;7912;51.376;6.126;2023-04-25T03:38:51;6.47;;;4.73;;
15624;SDS011;7912;51.376;6.126;2023-04-25T03:41:19;10.47;;;4.53;;
15624;SDS011;7912;51.376;6.126;2023-04-25T03:43:46;10.43;;;4.97;;
15624;SDS011;7912;51.376;6.126;2023-04-25T03:46:14;11.43;;;5.07;;
15624;SDS011;7912;51.376;6.126;2023-04-25T03:48:43;8.70;;;4.60;;
15624;SDS011;7912;51.376;6.126;2023-04-25T03:51:10;7.47;;;4.83;;
15624;SDS011;7912;51.376;6.126;2023-04-25T03:53:38;10.20;;;4.90;;
15624;SDS011;7912;51.376;6.126;2023-04-25T03:56:06;8.53;;;4.97;;
15624;SDS011;7912;51.376;6.126;2023-04-25T03:58:33;7.80;;;4.63;;
15624;SDS011;7912;51.376;6.126;2023-04-25T04:01:00;10.13;;;4.73;;
15624;SDS011;7912;51.376;6.126;2023-04-25T04:03:34;9.33;;;4.73;;
15624;SDS011;7912;51.376;6.126;2023-04-25T04:06:03;8.50;;;4.77;;
15624;SDS011;7912;51.376;6.126;2023-04-25T04:08:35;10.17;;;5.03;;
15624;SDS011;7912;51.376;6.126;2023-04-25T04:11:03;9.83;;;5.03;;
15624;SDS011;7912;51.376;6.126;2023-04-25T04:13:30;10.00;;;4.90;;
15624;SDS011;7912;51.376;6.126;2023-04-25T04:15:58;13.57;;;5.53;;
15624;SDS011;7912;51.376;6.126;2023-04-25T04:18:26;8.67;;;4.87;;
15624;SDS011;7912;51.376;6.126;2023-04-25T04:20:53;9.27;;;5.20;;
15624;SDS011;7912;51.376;6.126;2023-04-25T04:23:21;12.70;;;4.70;;
15624;SDS011;7912;51.376;6.126;2023-04-25T04:25:49;11.17;;;5.00;;
15624;SDS011;7912;51.376;6.126;2023-04-25T04:28:16;8.97;;;4.50;;
15624;SDS011;7912;51.376;6.126;2023-04-25T04:30:44;10.60;;;5.47;;
15624;SDS011;7912;51.376;6.126;2023-04-25T04:33:12;10.53;;;5.07;;
15624;SDS011;7912;51.376;6.126;2023-04-25T04:35:41;10.07;;;5.20;;
15624;SDS011;7912;51.376;6.126;2023-04-25T04:38:09;11.90;;;4.70;;
15624;SDS011;7912;51.376;6.126;2023-04-25T04:40:38;9.60;;;4.80;;
15624;SDS011;7912;51.376;6.126;2023-04-25T04:43:09;11.23;;;5.23;;
15624;SDS011;7912;51.376;6.126;2023-04-25T04:45:36;10.60;;;4.90;;
15624;SDS011;7912;51.376;6.126;2023-04-25T04:48:07;7.90;;;4.47;;
15624;SDS011;7912;51.376;6.126;2023-04-25T04:50:35;10.40;;;5.03;;
15624;SDS011;7912;51.376;6.126;2023-04-25T04:53:03;11.67;;;5.10;;
15624;SDS011;7912;51.376;6.126;2023-04-25T04:55:31;12.57;;;5.17;;
15624;SDS011;7912;51.376;6.126;2023-04-25T05:02:09;8.83;;;4.70;;
15624;SDS011;7912;51.376;6.126;2023-04-25T05:04:39;10.07;;;4.60;;
15624;SDS011;7912;51.376;6.126;2023-04-25T05:07:07;7.97;;;4.07;;
15624;SDS011;7912;51.376;6.126;2023-04-25T05:13:34;11.80;;;4.90;;
15624;SDS011;7912;51.376;6.126;2023-04-25T05:16:02;8.83;;;4.67;;
15624;SDS011;7912;51.376;6.126;2023-04-25T05:18:35;7.97;;;4.43;;
15624;SDS011;7912;51.376;6.126;2023-04-25T05:21:02;9.40;;;4.90;;
15624;SDS011;7912;51.376;6.126;2023-04-25T05:23:30;10.53;;;4.87;;
15624;SDS011;7912;51.376;6.126;2023-04-25T05:25:59;9.50;;;4.70;;
15624;SDS011;7912;51.376;6.126;2023-04-25T05:28:26;9.67;;;5.00;;
15624;SDS011;7912;51.376;6.126;2023-04-25T05:30:54;14.40;;;5.20;;
15624;SDS011;7912;51.376;6.126;2023-04-25T05:37:34;10.23;;;4.80;;
15624;SDS011;7912;51.376;6.126;2023-04-25T05:40:02;12.57;;;5.27;;
15624;SDS011;7912;51.376;6.126;2023-04-25T05:42:36;12.67;;;5.07;;
15624;SDS011;7912;51.376;6.126;2023-04-25T05:45:04;10.90;;;5.00;;
15624;SDS011;7912;51.376;6.126;2023-04-25T05:47:32;9.67;;;4.57;;
15624;SDS011;7912;51.376;6.126;2023-04-25T05:49:59;12.77;;;5.67;;
15624;SDS011;7912;51.376;6.126;2023-04-25T05:52:26;9.13;;;4.63;;
15624;SDS011;7912;51.376;6.126;2023-04-25T05:54:53;11.13;;;5.00;;
15624;SDS011;7912;51.376;6.126;2023-04-25T05:57:21;11.60;;;5.10;;
15624;SDS011;7912;51.376;6.126;2023-04-25T05:59:53;9.47;;;5.00;;
15624;SDS011;7912;51.376;6.126;2023-04-25T06:02:20;16.53;;;5.47;;
15624;SDS011;7912;51.376;6.126;2023-04-25T06:04:51;8.30;;;4.30;;
15624;SDS011;7912;51.376;6.126;2023-04-25T06:07:20;13.40;;;5.33;;
15624;SDS011;7912;51.376;6.126;2023-04-25T06:09:47;11.23;;;5.67;;
15624;SDS011;7912;51.376;6.126;2023-04-25T06:12:15;15.80;;;5.43;;
15624;SDS011;7912;51.376;6.126;2023-04-25T06:14:42;15.57;;;4.70;;
15624;SDS011;7912;51.376;6.126;2023-04-25T06:17:10;12.97;;;4.93;;
15624;SDS011;7912;51.376;6.126;2023-04-25T06:19:37;11.73;;;4.60;;
15624;SDS011;7912;51.376;6.126;2023-04-25T06:22:04;10.03;;;4.10;;
15624;SDS011;7912;51.376;6.126;2023-04-25T06:24:34;9.00;;;3.83;;
15624;SDS011;7912;51.376;6.126;2023-04-25T06:27:01;13.10;;;4.53;;
15624;SDS011;7912;51.376;6.126;2023-04-25T06:32:17;12.07;;;4.50;;
15624;SDS011;7912;51.376;6.126;2023-04-25T06:34:44;9.83;;;4.40;;
15624;SDS011;7912;51.376;6.126;2023-04-25T06:37:12;9.90;;;4.03;;
15624;SDS011;7912;51.376;6.126;2023-04-25T06:39:40;11.50;;;4.20;;
15624;SDS011;7912;51.376;6.126;2023-04-25T06:42:07;9.13;;;4.57;;
15624;SDS011;7912;51.376;6.126;2023-04-25T06:44:34;7.97;;;4.00;;
15624;SDS011;7912;51.376;6.126;2023-04-25T06:47:02;10.77;;;4.10;;
15624;SDS011;7912;51.376;6.126;2023-04-25T06:49:33;12.30;;;4.20;;
15624;SDS011;7912;51.376;6.126;2023-04-25T06:52:01;9.33;;;3.70;;
15624;SDS011;7912;51.376;6.126;2023-04-25T06:54:29;8.53;;;4.07;;
15624;SDS011;7912;51.376;6.126;2023-04-25T06:56:56;9.50;;;3.93;;
15624;SDS011;7912;51.376;6.126;2023-04-25T06:59:23;10.23;;;3.80;;
15624;SDS011;7912;51.376;6.126;2023-04-25T07:01:51;10.57;;;4.80;;
15624;SDS011;7912;51.376;6.126;2023-04-25T07:04:18;8.37;;;3.50;;
15624;SDS011;7912;51.376;6.126;2023-04-25T07:06:46;9.70;;;3.93;;
15624;SDS011;7912;51.376;6.126;2023-04-25T07:09:14;8.47;;;3.40;;
15624;SDS011;7912;51.376;6.126;2023-04-25T07:11:42;6.97;;;3.40;;
15624;SDS011;7912;51.376;6.126;2023-04-25T07:14:10;10.37;;;3.60;;
15624;SDS011;7912;51.376;6.126;2023-04-25T07:16:37;9.80;;;3.33;;
15624;SDS011;7912;51.376;6.126;2023-04-25T07:19:05;11.30;;;3.43;;
15624;SDS011;7912;51.376;6.126;2023-04-25T07:21:32;7.83;;;3.87;;
15624;SDS011;7912;51.376;6.126;2023-04-25T07:23:59;8.80;;;3.90;;
15624;SDS011;7912;51.376;6.126;2023-04-25T07:26:27;10.00;;;3.40;;
15624;SDS011;7912;51.376;6.126;2023-04-25T07:28:54;6.53;;;3.43;;
15624;SDS011;7912;51.376;6.126;2023-04-25T07:31:21;8.43;;;3.60;;
15624;SDS011;7912;51.376;6.126;2023-04-25T07:33:49;6.47;;;3.27;;
15624;SDS011;7912;51.376;6.126;2023-04-25T07:36:17;9.90;;;3.87;;
15624;SDS011;7912;51.376;6.126;2023-04-25T07:38:44;7.57;;;3.40;;
15624;SDS011;7912;51.376;6.126;2023-04-25T07:41:11;8.03;;;3.43;;
15624;SDS011;7912;51.376;6.126;2023-04-25T07:43:41;7.67;;;3.50;;
15624;SDS011;7912;51.376;6.126;2023-04-25T07:46:09;9.97;;;3.33;;
15624;SDS011;7912;51.376;6.126;2023-04-25T07:48:36;7.47;;;3.20;;
15624;SDS011;7912;51.376;6.126;2023-04-25T07:51:04;7.07;;;3.57;;
15624;SDS011;7912;51.376;6.126;2023-04-25T07:53:33;6.97;;;3.17;;
15624;SDS011;7912;51.376;6.126;2023-04-25T07:56:02;5.40;;;3.13;;
15624;SDS011;7912;51.376;6.126;2023-04-25T07:58:33;7.53;;;3.17;;
15624;SDS011;7912;51.376;6.126;2023-04-25T08:01:00;7.53;;;3.00;;
15624;SDS011;7912;51.376;6.126;2023-04-25T08:03:27;8.07;;;3.40;;
15624;SDS011;7912;51.376;6.126;2023-04-25T08:05:55;7.97;;;2.73;;
15624;SDS011;7912;51.376;6.126;2023-04-25T08:08:27;7.57;;;3.10;;
15624;SDS011;7912;51.376;6.126;2023-04-25T08:10:55;7.37;;;3.10;;
15624;SDS011;7912;51.376;6.126;2023-04-25T08:13:22;7.37;;;3.20;;
15624;SDS011;7912;51.376;6.126;2023-04-25T08:15:49;9.23;;;3.67;;
15624;SDS011;7912;51.376;6.126;2023-04-25T08:18:17;5.73;;;2.60;;
15624;SDS011;7912;51.376;6.126;2023-04-25T08:20:44;7.17;;;3.27;;
15624;SDS011;7912;51.376;6.126;2023-04-25T08:23:12;6.40;;;2.93;;
15624;SDS011;7912;51.376;6.126;2023-04-25T08:25:39;6.23;;;2.97;;
15624;SDS011;7912;51.376;6.126;2023-04-25T08:28:06;5.03;;;2.70;;
15624;SDS011;7912;51.376;6.126;2023-04-25T08:30:34;7.87;;;2.90;;
15624;SDS011;7912;51.376;6.126;2023-04-25T08:33:01;7.27;;;3.20;;
15624;SDS011;7912;51.376;6.126;2023-04-25T08:35:32;4.87;;;2.90;;
15624;SDS011;7912;51.376;6.126;2023-04-25T08:38:00;6.27;;;2.37;;
15624;SDS011;7912;51.376;6.126;2023-04-25T08:40:31;9.20;;;3.17;;
15624;SDS011;7912;51.376;6.126;2023-04-25T08:43:07;6.97;;;3.00;;
15624;SDS011;7912;51.376;6.126;2023-04-25T08:45:38;6.00;;;3.23;;
15624;SDS011;7912;51.376;6.126;2023-04-25T08:48:10;4.40;;;2.40;;
15624;SDS011;7912;51.376;6.126;2023-04-25T08:50:50;8.70;;;2.80;;
15624;SDS011;7912;51.376;6.126;2023-04-25T08:53:26;5.90;;;2.57;;
15624;SDS011;7912;51.376;6.126;2023-04-25T08:56:00;3.70;;;2.50;;
15624;SDS011;7912;51.376;6.126;2023-04-25T08:58:28;6.37;;;2.47;;
15624;SDS011;7912;51.376;6.126;2023-04-25T09:00:56;5.47;;;2.30;;
15624;SDS011;7912;51.376;6.126;2023-04-25T09:03:23;4.23;;;2.40;;
15624;SDS011;7912;51.376;6.126;2023-04-25T09:05:51;4.37;;;2.60;;
15624;SDS011;7912;51.376;6.126;2023-04-25T09:08:19;5.43;;;2.97;;
15624;SDS011;7912;51.376;6.126;2023-04-25T09:10:46;8.60;;;2.60;;
15624;SDS011;7912;51.376;6.126;2023-04-25T09:13:17;4.73;;;2.40;;
15624;SDS011;7912;51.376;6.126;2023-04-25T09:15:55;7.27;;;2.73;;
15624;SDS011;7912;51.376;6.126;2023-04-25T09:18:27;5.13;;;2.30;;
15624;SDS011;7912;51.376;6.126;2023-04-25T09:21:08;7.67;;;2.43;;
15624;SDS011;7912;51.376;6.126;2023-04-25T09:23:41;6.67;;;2.80;;
15624;SDS011;7912;51.376;6.126;2023-04-25T09:26:15;3.90;;;2.20;;
15624;SDS011;7912;51.376;6.126;2023-04-25T09:28:46;5.53;;;2.60;;
15624;SDS011;7912;51.376;6.126;2023-04-25T09:31:25;5.63;;;2.20;;
15624;SDS011;7912;51.376;6.126;2023-04-25T09:33:58;4.30;;;2.47;;
15624;SDS011;7912;51.376;6.126;2023-04-25T09:36:30;5.00;;;2.17;;
15624;SDS011;7912;51.376;6.126;2023-04-25T09:38:59;6.10;;;2.20;;
15624;SDS011;7912;51.376;6.126;2023-04-25T09:41:27;5.83;;;2.67;;
15624;SDS011;7912;51.376;6.126;2023-04-25T09:43:59;5.77;;;2.47;;
15624;SDS011;7912;51.376;6.126;2023-04-25T09:46:33;8.73;;;2.80;;
15624;SDS011;7912;51.376;6.126;2023-04-25T09:49:07;4.33;;;2.50;;
15624;SDS011;7912;51.376;6.126;2023-04-25T09:51:35;7.27;;;2.70;;
15624;SDS011;7912;51.376;6.126;2023-04-25T09:54:02;3.80;;;2.17;;
15624;SDS011;7912;51.376;6.126;2023-04-25T09:56:32;6.87;;;2.40;;
15624;SDS011;7912;51.376;6.126;2023-04-25T09:59:04;4.43;;;2.50;;
15624;SDS011;7912;51.376;6.126;2023-04-25T10:01:36;3.57;;;2.00;;
15624;SDS011;7912;51.376;6.126;2023-04-25T10:04:08;5.07;;;2.23;;
15624;SDS011;7912;51.376;6.126;2023-04-25T10:06:39;4.77;;;1.90;;
15624;SDS011;7912;51.376;6.126;2023-04-25T10:09:09;5.10;;;2.03;;
15624;SDS011;7912;51.376;6.126;2023-04-25T10:11:39;4.13;;;2.00;;
15624;SDS011;7912;51.376;6.126;2023-04-25T10:14:07;4.70;;;1.90;;
15624;SDS011;7912;51.376;6.126;2023-04-25T10:16:35;5.53;;;2.07;;
15624;SDS011;7912;51.376;6.126;2023-04-25T10:19:04;4.00;;;1.90;;
15624;SDS011;7912;51.376;6.126;2023-04-25T10:21:32;3.83;;;2.33;;
15624;SDS011;7912;51.376;6.126;2023-04-25T10:24:02;4.67;;;2.00;;
15624;SDS011;7912;51.376;6.126;2023-04-25T10:26:30;4.97;;;2.47;;
15624;SDS011;7912;51.376;6.126;2023-04-25T10:28:59;8.50;;;2.23;;
15624;SDS011;7912;51.376;6.126;2023-04-25T10:31:29;4.00;;;2.17;;
15624;SDS011;7912;51.376;6.126;2023-04-25T10:34:01;3.47;;;2.03;;
15624;SDS011;7912;51.376;6.126;2023-04-25T10:36:32;5.50;;;2.27;;
15624;SDS011;7912;51.376;6.126;2023-04-25T10:39:06;5.53;;;1.80;;
15624;SDS011;7912;51.376;6.126;2023-04-25T10:41:57;4.40;;;1.87;;
15624;SDS011;7912;51.376;6.126;2023-04-25T10:44:26;4.57;;;1.80;;
15624;SDS011;7912;51.376;6.126;2023-04-25T10:46:55;4.20;;;1.77;;
15624;SDS011;7912;51.376;6.126;2023-04-25T10:52:11;4.03;;;1.80;;
15624;SDS011;7912;51.376;6.126;2023-04-25T10:54:40;4.03;;;1.80;;
15624;SDS011;7912;51.376;6.126;2023-04-25T10:57:32;3.10;;;1.67;;
15624;SDS011;7912;51.376;6.126;2023-04-25T11:00:12;5.67;;;1.93;;
15624;SDS011;7912;51.376;6.126;2023-04-25T11:07:09;3.30;;;1.83;;
15624;SDS011;7912;51.376;6.126;2023-04-25T11:09:51;3.30;;;1.47;;
15624;SDS011;7912;51.376;6.126;2023-04-25T11:12:25;2.57;;;1.50;;
15624;SDS011;7912;51.376;6.126;2023-04-25T11:15:03;2.17;;;1.27;;
15624;SDS011;7912;51.376;6.126;2023-04-25T11:17:39;1.67;;;1.20;;
15624;SDS011;7912;51.376;6.126;2023-04-25T11:20:13;3.97;;;1.10;;
15624;SDS011;7912;51.376;6.126;2023-04-25T11:22:43;1.30;;;1.20;;
15624;SDS011;7912;51.376;6.126;2023-04-25T11:25:27;2.43;;;1.60;;
15624;SDS011;7912;51.376;6.126;2023-04-25T11:27:57;2.27;;;1.50;;
15624;SDS011;7912;51.376;6.126;2023-04-25T11:30:29;4.03;;;1.70;;
15624;SDS011;7912;51.376;6.126;2023-04-25T11:33:03;2.40;;;1.53;;
15624;SDS011;7912;51.376;6.126;2023-04-25T11:35:31;4.63;;;1.53;;
15624;SDS011;7912;51.376;6.126;2023-04-25T11:38:01;2.77;;;1.40;;
15624;SDS011;7912;51.376;6.126;2023-04-25T11:43:35;2.47;;;1.20;;
15624;SDS011;7912;51.376;6.126;2023-04-25T11:52:58;2.97;;;1.20;;
15624;SDS011;7912;51.376;6.126;2023-04-25T11:55:30;3.53;;;1.53;;
15624;SDS011;7912;51.376;6.126;2023-04-25T11:57:59;1.87;;;1.40;;
15624;SDS011;7912;51.376;6.126;2023-04-25T12:00:27;2.23;;;1.40;;
15624;SDS011;7912;51.376;6.126;2023-04-25T12:07:05;3.57;;;1.80;;
15624;SDS011;7912;51.376;6.126;2023-04-25T12:09:36;2.83;;;1.80;;
15624;SDS011;7912;51.376;6.126;2023-04-25T12:12:04;2.67;;;1.60;;
15624;SDS011;7912;51.376;6.126;2023-04-25T12:14:33;2.80;;;1.73;;
15624;SDS011;7912;51.376;6.126;2023-04-25T12:17:03;3.77;;;1.67;;
15624;SDS011;7912;51.376;6.126;2023-04-25T12:19:35;2.50;;;1.57;;
15624;SDS011;7912;51.376;6.126;2023-04-25T12:22:20;3.00;;;1.53;;
15624;SDS011;7912;51.376;6.126;2023-04-25T12:24:50;2.60;;;1.40;;
15624;SDS011;7912;51.376;6.126;2023-04-25T12:27:19;2.13;;;1.40;;
15624;SDS011;7912;51.376;6.126;2023-04-25T12:29:50;2.30;;;1.50;;
15624;SDS011;7912;51.376;6.126;2023-04-25T12:32:25;4.13;;;2.10;;
15624;SDS011;7912;51.376;6.126;2023-04-25T12:34:56;3.13;;;1.40;;
15624;SDS011;7912;51.376;6.126;2023-04-25T12:37:26;3.97;;;1.83;;
15624;SDS011;7912;51.376;6.126;2023-04-25T12:39:58;5.03;;;1.80;;
15624;SDS011;7912;51.376;6.126;2023-04-25T12:46:26;4.73;;;1.90;;
15624;SDS011;7912;51.376;6.126;2023-04-25T12:52:53;3.73;;;2.00;;
15624;SDS011;7912;51.376;6.126;2023-04-25T12:55:21;2.30;;;1.77;;
15624;SDS011;7912;51.376;6.126;2023-04-25T13:01:58;3.30;;;2.20;;
15624;SDS011;7912;51.376;6.126;2023-04-25T13:04:26;3.87;;;1.93;;
15624;SDS011;7912;51.376;6.126;2023-04-25T13:06:54;3.70;;;2.57;;
15624;SDS011;7912;51.376;6.126;2023-04-25T13:09:24;3.90;;;1.90;;
15624;SDS011;7912;51.376;6.126;2023-04-25T13:11:53;3.20;;;1.60;;
15624;SDS011;7912;51.376;6.126;2023-04-25T13:18:34;2.90;;;1.77;;
15624;SDS011;7912;51.376;6.126;2023-04-25T13:21:04;2.70;;;1.70;;
15624;SDS011;7912;51.376;6.126;2023-04-25T13:26:18;2.73;;;1.60;;
15624;SDS011;7912;51.376;6.126;2023-04-25T13:28:48;3.97;;;1.53;;
15624;SDS011;7912;51.376;6.126;2023-04-25T13:31:16;4.43;;;1.80;;
15624;SDS011;7912;51.376;6.126;2023-04-25T13:33:43;3.03;;;1.73;;
15624;SDS011;7912;51.376;6.126;2023-04-25T13:36:10;3.93;;;1.57;;
15624;SDS011;7912;51.376;6.126;2023-04-25T13:38:38;4.03;;;1.67;;
15624;SDS011;7912;51.376;6.126;2023-04-25T13:41:05;4.07;;;1.60;;
15624;SDS011;7912;51.376;6.126;2023-04-25T13:43:33;3.03;;;1.40;;
15624;SDS011;7912;51.376;6.126;2023-04-25T13:46:03;3.67;;;1.40;;
15624;SDS011;7912;51.376;6.126;2023-04-25T13:48:30;1.97;;;1.30;;
15624;SDS011;7912;51.376;6.126;2023-04-25T13:50:57;3.87;;;1.50;;
15624;SDS011;7912;51.376;6.126;2023-04-25T13:53:25;3.57;;;1.27;;
15624;SDS011;7912;51.376;6.126;2023-04-25T13:55:52;1.70;;;1.10;;
15624;SDS011;7912;51.376;6.126;2023-04-25T13:58:19;1.63;;;1.10;;
15624;SDS011;7912;51.376;6.126;2023-04-25T14:00:47;1.73;;;1.20;;
15624;SDS011;7912;51.376;6.126;2023-04-25T14:03:14;4.17;;;1.50;;
15624;SDS011;7912;51.376;6.126;2023-04-25T14:05:41;2.33;;;1.20;;
15624;SDS011;7912;51.376;6.126;2023-04-25T14:08:12;2.57;;;1.17;;
15624;SDS011;7912;51.376;6.126;2023-04-25T14:11:00;3.07;;;1.50;;
15624;SDS011;7912;51.376;6.126;2023-04-25T14:13:29;3.67;;;1.60;;
15624;SDS011;7912;51.376;6.126;2023-04-25T14:16:00;6.23;;;2.07;;
15624;SDS011;7912;51.376;6.126;2023-04-25T14:18:28;4.27;;;1.60;;
15624;SDS011;7912;51.376;6.126;2023-04-25T14:20:57;3.10;;;1.80;;
15624;SDS011;7912;51.376;6.126;2023-04-25T14:23:24;4.30;;;1.80;;
15624;SDS011;7912;51.376;6.126;2023-04-25T14:25:52;3.43;;;1.70;;
15624;SDS011;7912;51.376;6.126;2023-04-25T14:28:19;3.20;;;1.60;;
15624;SDS011;7912;51.376;6.126;2023-04-25T14:30:46;3.77;;;1.90;;
15624;SDS011;7912;51.376;6.126;2023-04-25T14:33:14;5.27;;;1.97;;
15624;SDS011;7912;51.376;6.126;2023-04-25T14:35:41;2.60;;;1.57;;
15624;SDS011;7912;51.376;6.126;2023-04-25T14:38:10;3.13;;;1.67;;
15624;SDS011;7912;51.376;6.126;2023-04-25T14:40:37;3.60;;;1.50;;
15624;SDS011;7912;51.376;6.126;2023-04-25T14:43:08;3.73;;;1.20;;
15624;SDS011;7912;51.376;6.126;2023-04-25T14:45:35;3.40;;;1.50;;
15624;SDS011;7912;51.376;6.126;2023-04-25T14:48:03;2.73;;;1.40;;
15624;SDS011;7912;51.376;6.126;2023-04-25T14:50:31;3.20;;;1.30;;
15624;SDS011;7912;51.376;6.126;2023-04-25T14:53:02;2.30;;;1.30;;
15624;SDS011;7912;51.376;6.126;2023-04-25T14:55:29;3.43;;;1.47;;
15624;SDS011;7912;51.376;6.126;2023-04-25T14:57:56;2.77;;;1.50;;
15624;SDS011;7912;51.376;6.126;2023-04-25T15:00:25;3.30;;;1.63;;
15624;SDS011;7912;51.376;6.126;2023-04-25T15:02:53;3.80;;;1.67;;
15624;SDS011;7912;51.376;6.126;2023-04-25T15:05:20;2.97;;;1.50;;
15624;SDS011;7912;51.376;6.126;2023-04-25T15:07:47;2.40;;;1.50;;
15624;SDS011;7912;51.376;6.126;2023-04-25T15:10:16;3.97;;;1.50;;
15624;SDS011;7912;51.376;6.126;2023-04-25T15:12:45;5.07;;;2.03;;
15624;SDS011;7912;51.376;6.126;2023-04-25T15:15:42;3.73;;;1.80;;
15624;SDS011;7912;51.376;6.126;2023-04-25T15:18:10;5.60;;;1.83;;
15624;SDS011;7912;51.376;6.126;2023-04-25T15:20:44;3.53;;;1.73;;
15624;SDS011;7912;51.376;6.126;2023-04-25T15:23:14;3.33;;;1.70;;
15624;SDS011;7912;51.376;6.126;2023-04-25T15:25:42;4.80;;;2.23;;
15624;SDS011;7912;51.376;6.126;2023-04-25T15:28:09;3.90;;;2.30;;
15624;SDS011;7912;51.376;6.126;2023-04-25T15:30:36;4.10;;;1.87;;
15624;SDS011;7912;51.376;6.126;2023-04-25T15:33:04;3.30;;;1.60;;
15624;SDS011;7912;51.376;6.126;2023-04-25T15:35:31;3.13;;;1.20;;
15624;SDS011;7912;51.376;6.126;2023-04-25T15:37:58;4.67;;;1.60;;
15624;SDS011;7912;51.376;6.126;2023-04-25T15:40:32;2.90;;;1.40;;
15624;SDS011;7912;51.376;6.126;2023-04-25T15:43:10;3.43;;;1.60;;
15624;SDS011;7912;51.376;6.126;2023-04-25T15:45:42;5.77;;;1.70;;
15624;SDS011;7912;51.376;6.126;2023-04-25T15:48:13;3.60;;;1.57;;
15624;SDS011;7912;51.376;6.126;2023-04-25T15:50:41;3.17;;;1.60;;
15624;SDS011;7912;51.376;6.126;2023-04-25T15:53:08;2.67;;;1.47;;
15624;SDS011;7912;51.376;6.126;2023-04-25T15:55:36;2.50;;;1.77;;
15624;SDS011;7912;51.376;6.126;2023-04-25T15:58:06;3.83;;;1.47;;
15624;SDS011;7912;51.376;6.126;2023-04-25T16:00:37;3.77;;;1.53;;
15624;SDS011;7912;51.376;6.126;2023-04-25T16:03:06;2.10;;;1.50;;
15624;SDS011;7912;51.376;6.126;2023-04-25T16:05:35;4.03;;;1.37;;
15624;SDS011;7912;51.376;6.126;2023-04-25T16:08:04;2.80;;;1.57;;
15624;SDS011;7912;51.376;6.126;2023-04-25T16:10:34;3.20;;;1.43;;
15624;SDS011;7912;51.376;6.126;2023-04-25T16:13:04;2.73;;;1.30;;